sensor_id;sensor_type;location;lat;lon;timestamp;temperature;humidity
74368;DHT22;64991;41.090;-8.118;2024-01-30T00:04:36;17.40;81.00
74368;DHT22;64991;41.090;-8.118;2024-01-30T00:09:39;17.40;81.00
74368;DHT22;64991;41.090;-8.118;2024-01-30T00:14:45;17.40;81.10
74368;DHT22;64991;41.090;-8.118;2024-01-30T00:19:51;17.50;81.30
74368;DHT22;64991;41.090;-8.118;2024-01-30T00:24:55;17.40;81.00
74368;DHT22;64991;41.090;-8.118;2024-01-30T00:30:00;17.50;81.10
74368;DHT22;64991;41.090;-8.118;2024-01-30T00:35:04;17.40;81.00
74368;DHT22;64991;41.090;-8.118;2024-01-30T00:40:09;17.40;80.90
74368;DHT22;64991;41.090;-8.118;2024-01-30T00:45:19;17.40;80.90
74368;DHT22;64991;41.090;-8.118;2024-01-30T00:50:22;17.40;81.00
74368;DHT22;64991;41.090;-8.118;2024-01-30T00:55:26;17.40;81.20
74368;DHT22;64991;41.090;-8.118;2024-01-30T01:00:31;17.40;81.00
74368;DHT22;64991;41.090;-8.118;2024-01-30T01:05:35;17.40;80.80
74368;DHT22;64991;41.090;-8.118;2024-01-30T01:10:39;17.40;80.90
74368;DHT22;64991;41.090;-8.118;2024-01-30T01:15:44;17.30;81.10
74368;DHT22;64991;41.090;-8.118;2024-01-30T01:20:48;17.30;81.00
74368;DHT22;64991;41.090;-8.118;2024-01-30T01:25:52;17.40;80.90
74368;DHT22;64991;41.090;-8.118;2024-01-30T01:31:00;17.30;81.00
74368;DHT22;64991;41.090;-8.118;2024-01-30T01:36:07;17.30;81.10
74368;DHT22;64991;41.090;-8.118;2024-01-30T01:41:11;17.40;80.90
74368;DHT22;64991;41.090;-8.118;2024-01-30T01:46:16;17.30;80.80
74368;DHT22;64991;41.090;-8.118;2024-01-30T01:51:21;17.40;80.60
74368;DHT22;64991;41.090;-8.118;2024-01-30T01:56:25;17.30;80.70
74368;DHT22;64991;41.090;-8.118;2024-01-30T02:01:31;17.30;81.00
74368;DHT22;64991;41.090;-8.118;2024-01-30T02:06:35;17.40;80.70
74368;DHT22;64991;41.090;-8.118;2024-01-30T02:11:39;17.30;80.60
74368;DHT22;64991;41.090;-8.118;2024-01-30T02:16:45;17.30;81.00
74368;DHT22;64991;41.090;-8.118;2024-01-30T02:21:50;17.30;80.60
74368;DHT22;64991;41.090;-8.118;2024-01-30T02:26:53;17.30;80.70
74368;DHT22;64991;41.090;-8.118;2024-01-30T02:31:57;17.30;80.60
74368;DHT22;64991;41.090;-8.118;2024-01-30T02:37:02;17.30;80.60
74368;DHT22;64991;41.090;-8.118;2024-01-30T02:42:06;17.40;80.70
74368;DHT22;64991;41.090;-8.118;2024-01-30T02:47:10;17.20;80.60
74368;DHT22;64991;41.090;-8.118;2024-01-30T02:52:15;17.30;80.70
74368;DHT22;64991;41.090;-8.118;2024-01-30T02:57:18;17.20;80.60
74368;DHT22;64991;41.090;-8.118;2024-01-30T03:02:22;17.30;80.70
74368;DHT22;64991;41.090;-8.118;2024-01-30T03:07:27;17.30;80.40
74368;DHT22;64991;41.090;-8.118;2024-01-30T03:12:31;17.20;80.70
74368;DHT22;64991;41.090;-8.118;2024-01-30T03:17:34;17.30;80.60
74368;DHT22;64991;41.090;-8.118;2024-01-30T03:22:40;17.20;80.40
74368;DHT22;64991;41.090;-8.118;2024-01-30T03:27:44;17.20;80.60
74368;DHT22;64991;41.090;-8.118;2024-01-30T03:32:47;17.30;80.40
74368;DHT22;64991;41.090;-8.118;2024-01-30T03:37:53;17.20;80.50
74368;DHT22;64991;41.090;-8.118;2024-01-30T03:42:57;17.20;80.40
74368;DHT22;64991;41.090;-8.118;2024-01-30T03:48:01;17.20;80.50
74368;DHT22;64991;41.090;-8.118;2024-01-30T03:53:06;17.30;80.60
74368;DHT22;64991;41.090;-8.118;2024-01-30T03:58:09;17.20;80.40
74368;DHT22;64991;41.090;-8.118;2024-01-30T04:03:14;17.20;80.60
74368;DHT22;64991;41.090;-8.118;2024-01-30T04:08:19;17.20;80.60
74368;DHT22;64991;41.090;-8.118;2024-01-30T04:13:23;17.20;80.20
74368;DHT22;64991;41.090;-8.118;2024-01-30T04:18:26;17.20;80.30
74368;DHT22;64991;41.090;-8.118;2024-01-30T04:23:31;17.20;80.60
74368;DHT22;64991;41.090;-8.118;2024-01-30T04:28:35;17.20;80.70
74368;DHT22;64991;41.090;-8.118;2024-01-30T04:33:39;17.20;80.50
74368;DHT22;64991;41.090;-8.118;2024-01-30T04:38:44;17.20;80.40
74368;DHT22;64991;41.090;-8.118;2024-01-30T04:43:48;17.20;80.80
74368;DHT22;64991;41.090;-8.118;2024-01-30T04:48:52;17.10;80.30
74368;DHT22;64991;41.090;-8.118;2024-01-30T04:53:57;17.10;80.40
74368;DHT22;64991;41.090;-8.118;2024-01-30T04:59:02;17.20;80.40
74368;DHT22;64991;41.090;-8.118;2024-01-30T05:04:07;17.20;80.30
74368;DHT22;64991;41.090;-8.118;2024-01-30T05:09:16;17.20;80.60
74368;DHT22;64991;41.090;-8.118;2024-01-30T05:14:20;17.10;80.50
74368;DHT22;64991;41.090;-8.118;2024-01-30T05:19:24;17.10;80.40
74368;DHT22;64991;41.090;-8.118;2024-01-30T05:24:29;17.20;80.30
74368;DHT22;64991;41.090;-8.118;2024-01-30T05:29:34;17.10;80.50
74368;DHT22;64991;41.090;-8.118;2024-01-30T05:34:37;17.10;80.30
74368;DHT22;64991;41.090;-8.118;2024-01-30T05:39:42;17.10;80.30
74368;DHT22;64991;41.090;-8.118;2024-01-30T05:44:46;17.10;80.20
74368;DHT22;64991;41.090;-8.118;2024-01-30T05:49:50;17.10;80.40
74368;DHT22;64991;41.090;-8.118;2024-01-30T05:54:55;17.10;80.20
74368;DHT22;64991;41.090;-8.118;2024-01-30T05:59:59;17.10;80.50
74368;DHT22;64991;41.090;-8.118;2024-01-30T06:05:03;17.10;80.60
74368;DHT22;64991;41.090;-8.118;2024-01-30T06:10:09;17.00;80.30
74368;DHT22;64991;41.090;-8.118;2024-01-30T06:15:12;17.10;80.30
74368;DHT22;64991;41.090;-8.118;2024-01-30T06:20:16;17.10;80.50
74368;DHT22;64991;41.090;-8.118;2024-01-30T06:25:21;17.10;80.30
74368;DHT22;64991;41.090;-8.118;2024-01-30T06:30:25;17.10;80.30
74368;DHT22;64991;41.090;-8.118;2024-01-30T06:35:28;17.00;80.10
74368;DHT22;64991;41.090;-8.118;2024-01-30T06:40:33;17.00;80.30
74368;DHT22;64991;41.090;-8.118;2024-01-30T06:45:38;17.00;80.40
74368;DHT22;64991;41.090;-8.118;2024-01-30T06:50:42;17.00;80.20
74368;DHT22;64991;41.090;-8.118;2024-01-30T06:55:47;17.00;80.20
74368;DHT22;64991;41.090;-8.118;2024-01-30T07:00:51;17.00;80.20
74368;DHT22;64991;41.090;-8.118;2024-01-30T07:05:54;17.00;80.10
74368;DHT22;64991;41.090;-8.118;2024-01-30T07:10:59;17.10;80.20
74368;DHT22;64991;41.090;-8.118;2024-01-30T07:16:03;17.10;79.90
74368;DHT22;64991;41.090;-8.118;2024-01-30T07:21:07;16.90;79.90
74368;DHT22;64991;41.090;-8.118;2024-01-30T07:26:12;17.00;80.10
74368;DHT22;64991;41.090;-8.118;2024-01-30T07:31:16;17.00;80.10
74368;DHT22;64991;41.090;-8.118;2024-01-30T07:36:22;17.00;80.10
74368;DHT22;64991;41.090;-8.118;2024-01-30T07:41:27;17.00;80.10
74368;DHT22;64991;41.090;-8.118;2024-01-30T07:46:31;17.00;79.80
74368;DHT22;64991;41.090;-8.118;2024-01-30T07:51:35;16.90;80.10
74368;DHT22;64991;41.090;-8.118;2024-01-30T07:56:40;16.90;79.90
74368;DHT22;64991;41.090;-8.118;2024-01-30T08:01:43;17.00;79.70
74368;DHT22;64991;41.090;-8.118;2024-01-30T08:06:47;16.90;79.80
74368;DHT22;64991;41.090;-8.118;2024-01-30T08:11:52;17.00;79.90
74368;DHT22;64991;41.090;-8.118;2024-01-30T08:16:56;16.90;80.00
74368;DHT22;64991;41.090;-8.118;2024-01-30T08:22:00;16.90;80.00
74368;DHT22;64991;41.090;-8.118;2024-01-30T08:27:05;17.00;80.00
74368;DHT22;64991;41.090;-8.118;2024-01-30T08:32:11;17.00;79.80
74368;DHT22;64991;41.090;-8.118;2024-01-30T08:37:14;17.10;79.80
74368;DHT22;64991;41.090;-8.118;2024-01-30T08:42:20;17.00;79.90
74368;DHT22;64991;41.090;-8.118;2024-01-30T08:47:24;17.00;79.90
74368;DHT22;64991;41.090;-8.118;2024-01-30T08:52:28;17.00;79.90
74368;DHT22;64991;41.090;-8.118;2024-01-30T08:57:33;17.00;79.50
74368;DHT22;64991;41.090;-8.118;2024-01-30T09:02:37;17.00;79.80
74368;DHT22;64991;41.090;-8.118;2024-01-30T09:07:40;16.90;79.50
74368;DHT22;64991;41.090;-8.118;2024-01-30T09:12:46;16.90;79.60
74368;DHT22;64991;41.090;-8.118;2024-01-30T09:17:49;16.90;79.60
74368;DHT22;64991;41.090;-8.118;2024-01-30T09:22:53;16.90;79.50
74368;DHT22;64991;41.090;-8.118;2024-01-30T09:27:58;17.00;79.90
74368;DHT22;64991;41.090;-8.118;2024-01-30T09:33:02;16.90;79.70
74368;DHT22;64991;41.090;-8.118;2024-01-30T09:38:06;16.90;79.60
74368;DHT22;64991;41.090;-8.118;2024-01-30T09:43:11;16.90;79.80
74368;DHT22;64991;41.090;-8.118;2024-01-30T09:48:19;17.00;79.60
74368;DHT22;64991;41.090;-8.118;2024-01-30T09:53:22;16.90;79.90
74368;DHT22;64991;41.090;-8.118;2024-01-30T09:58:28;16.90;79.90
74368;DHT22;64991;41.090;-8.118;2024-01-30T10:03:31;16.90;79.90
74368;DHT22;64991;41.090;-8.118;2024-01-30T10:08:36;16.90;79.80
74368;DHT22;64991;41.090;-8.118;2024-01-30T10:13:41;16.90;79.90
74368;DHT22;64991;41.090;-8.118;2024-01-30T10:18:44;16.90;80.00
74368;DHT22;64991;41.090;-8.118;2024-01-30T10:23:49;16.90;80.00
74368;DHT22;64991;41.090;-8.118;2024-01-30T10:28:54;16.90;79.80
74368;DHT22;64991;41.090;-8.118;2024-01-30T10:33:58;17.00;80.30
74368;DHT22;64991;41.090;-8.118;2024-01-30T10:39:17;16.90;80.30
74368;DHT22;64991;41.090;-8.118;2024-01-30T10:44:22;16.90;80.00
74368;DHT22;64991;41.090;-8.118;2024-01-30T10:49:26;16.90;80.20
74368;DHT22;64991;41.090;-8.118;2024-01-30T10:54:30;16.90;80.30
74368;DHT22;64991;41.090;-8.118;2024-01-30T10:59:36;16.90;80.20
74368;DHT22;64991;41.090;-8.118;2024-01-30T11:04:41;16.90;80.20
74368;DHT22;64991;41.090;-8.118;2024-01-30T11:09:48;16.90;80.30
74368;DHT22;64991;41.090;-8.118;2024-01-30T11:15:02;16.90;80.20
74368;DHT22;64991;41.090;-8.118;2024-01-30T11:20:09;16.90;80.00
74368;DHT22;64991;41.090;-8.118;2024-01-30T11:25:19;16.90;80.40
74368;DHT22;64991;41.090;-8.118;2024-01-30T11:30:26;17.00;80.40
74368;DHT22;64991;41.090;-8.118;2024-01-30T11:35:31;16.90;80.20
74368;DHT22;64991;41.090;-8.118;2024-01-30T11:40:36;17.00;80.30
74368;DHT22;64991;41.090;-8.118;2024-01-30T11:45:42;16.90;80.30
74368;DHT22;64991;41.090;-8.118;2024-01-30T11:50:46;16.90;80.20
74368;DHT22;64991;41.090;-8.118;2024-01-30T11:55:52;16.90;80.40
74368;DHT22;64991;41.090;-8.118;2024-01-30T12:00:57;17.00;80.10
74368;DHT22;64991;41.090;-8.118;2024-01-30T12:06:02;17.00;80.60
74368;DHT22;64991;41.090;-8.118;2024-01-30T12:11:07;17.00;80.30
74368;DHT22;64991;41.090;-8.118;2024-01-30T12:16:12;17.00;80.60
74368;DHT22;64991;41.090;-8.118;2024-01-30T12:21:16;17.00;80.50
74368;DHT22;64991;41.090;-8.118;2024-01-30T12:26:21;17.00;80.70
74368;DHT22;64991;41.090;-8.118;2024-01-30T12:31:28;17.00;80.50
74368;DHT22;64991;41.090;-8.118;2024-01-30T12:36:35;17.00;80.80
74368;DHT22;64991;41.090;-8.118;2024-01-30T12:41:38;17.00;80.70
74368;DHT22;64991;41.090;-8.118;2024-01-30T12:46:43;17.00;80.80
74368;DHT22;64991;41.090;-8.118;2024-01-30T12:51:49;17.00;81.10
74368;DHT22;64991;41.090;-8.118;2024-01-30T12:56:53;17.00;80.90
74368;DHT22;64991;41.090;-8.118;2024-01-30T13:07:05;17.10;81.00
74368;DHT22;64991;41.090;-8.118;2024-01-30T13:12:08;17.10;81.20
74368;DHT22;64991;41.090;-8.118;2024-01-30T13:17:14;17.10;81.10
74368;DHT22;64991;41.090;-8.118;2024-01-30T13:22:17;17.10;81.10
74368;DHT22;64991;41.090;-8.118;2024-01-30T13:27:23;17.10;81.30
74368;DHT22;64991;41.090;-8.118;2024-01-30T13:32:28;17.20;81.40
74368;DHT22;64991;41.090;-8.118;2024-01-30T13:37:32;17.10;81.30
74368;DHT22;64991;41.090;-8.118;2024-01-30T13:42:36;17.00;81.30
74368;DHT22;64991;41.090;-8.118;2024-01-30T13:47:41;17.10;81.30
74368;DHT22;64991;41.090;-8.118;2024-01-30T13:52:44;17.10;81.30
74368;DHT22;64991;41.090;-8.118;2024-01-30T13:57:48;17.10;81.40
74368;DHT22;64991;41.090;-8.118;2024-01-30T14:02:54;17.20;81.50
74368;DHT22;64991;41.090;-8.118;2024-01-30T14:07:59;17.10;81.30
74368;DHT22;64991;41.090;-8.118;2024-01-30T14:13:03;17.20;81.40
74368;DHT22;64991;41.090;-8.118;2024-01-30T14:18:08;17.20;81.40
74368;DHT22;64991;41.090;-8.118;2024-01-30T14:23:13;17.20;81.60
74368;DHT22;64991;41.090;-8.118;2024-01-30T14:28:16;17.10;81.60
74368;DHT22;64991;41.090;-8.118;2024-01-30T14:33:22;17.10;81.40
74368;DHT22;64991;41.090;-8.118;2024-01-30T14:38:26;17.20;81.30
74368;DHT22;64991;41.090;-8.118;2024-01-30T14:43:30;17.20;81.60
74368;DHT22;64991;41.090;-8.118;2024-01-30T14:48:35;17.20;81.50
74368;DHT22;64991;41.090;-8.118;2024-01-30T14:53:39;17.10;81.60
74368;DHT22;64991;41.090;-8.118;2024-01-30T14:58:42;17.10;81.50
74368;DHT22;64991;41.090;-8.118;2024-01-30T15:03:47;17.10;81.50
74368;DHT22;64991;41.090;-8.118;2024-01-30T15:08:53;17.10;81.80
74368;DHT22;64991;41.090;-8.118;2024-01-30T15:13:57;17.20;81.50
74368;DHT22;64991;41.090;-8.118;2024-01-30T15:19:02;17.20;81.50
74368;DHT22;64991;41.090;-8.118;2024-01-30T15:24:07;17.10;81.50
74368;DHT22;64991;41.090;-8.118;2024-01-30T15:29:10;17.10;81.70
74368;DHT22;64991;41.090;-8.118;2024-01-30T15:34:15;17.10;81.40
74368;DHT22;64991;41.090;-8.118;2024-01-30T15:39:19;17.10;81.50
74368;DHT22;64991;41.090;-8.118;2024-01-30T15:44:23;17.10;81.40
74368;DHT22;64991;41.090;-8.118;2024-01-30T15:49:28;17.10;81.40
74368;DHT22;64991;41.090;-8.118;2024-01-30T15:54:32;17.10;81.50
74368;DHT22;64991;41.090;-8.118;2024-01-30T15:59:36;17.00;81.50
74368;DHT22;64991;41.090;-8.118;2024-01-30T16:04:41;17.10;81.40
74368;DHT22;64991;41.090;-8.118;2024-01-30T16:09:45;17.10;81.20
74368;DHT22;64991;41.090;-8.118;2024-01-30T16:14:48;17.10;81.40
74368;DHT22;64991;41.090;-8.118;2024-01-30T16:19:53;17.10;81.60
74368;DHT22;64991;41.090;-8.118;2024-01-30T16:24:57;17.10;81.40
74368;DHT22;64991;41.090;-8.118;2024-01-30T16:30:01;17.10;81.50
74368;DHT22;64991;41.090;-8.118;2024-01-30T16:35:07;17.10;81.50
74368;DHT22;64991;41.090;-8.118;2024-01-30T16:40:10;17.10;81.40
74368;DHT22;64991;41.090;-8.118;2024-01-30T16:45:14;17.10;81.50
74368;DHT22;64991;41.090;-8.118;2024-01-30T16:50:19;17.10;81.40
74368;DHT22;64991;41.090;-8.118;2024-01-30T16:55:23;17.10;81.20
74368;DHT22;64991;41.090;-8.118;2024-01-30T17:00:28;17.10;81.50
74368;DHT22;64991;41.090;-8.118;2024-01-30T17:05:33;17.10;81.40
74368;DHT22;64991;41.090;-8.118;2024-01-30T17:10:37;17.10;81.50
74368;DHT22;64991;41.090;-8.118;2024-01-30T17:15:41;17.10;81.30
74368;DHT22;64991;41.090;-8.118;2024-01-30T17:20:46;17.00;81.50
74368;DHT22;64991;41.090;-8.118;2024-01-30T17:25:50;17.00;81.50
74368;DHT22;64991;41.090;-8.118;2024-01-30T17:30:54;17.00;81.60
74368;DHT22;64991;41.090;-8.118;2024-01-30T17:35:59;17.00;81.30
74368;DHT22;64991;41.090;-8.118;2024-01-30T17:41:03;17.10;81.30
74368;DHT22;64991;41.090;-8.118;2024-01-30T17:46:13;17.00;81.40
74368;DHT22;64991;41.090;-8.118;2024-01-30T17:51:18;17.10;81.20
74368;DHT22;64991;41.090;-8.118;2024-01-30T17:56:22;17.00;81.40
74368;DHT22;64991;41.090;-8.118;2024-01-30T18:01:26;16.90;81.60
74368;DHT22;64991;41.090;-8.118;2024-01-30T18:06:31;17.00;81.40
74368;DHT22;64991;41.090;-8.118;2024-01-30T18:11:35;16.90;81.60
74368;DHT22;64991;41.090;-8.118;2024-01-30T18:16:38;16.90;81.50
74368;DHT22;64991;41.090;-8.118;2024-01-30T18:21:44;16.90;81.50
74368;DHT22;64991;41.090;-8.118;2024-01-30T18:26:47;17.00;81.50
74368;DHT22;64991;41.090;-8.118;2024-01-30T18:31:51;17.00;81.50
74368;DHT22;64991;41.090;-8.118;2024-01-30T18:36:56;17.00;81.30
74368;DHT22;64991;41.090;-8.118;2024-01-30T18:42:02;17.00;81.50
74368;DHT22;64991;41.090;-8.118;2024-01-30T18:47:06;17.00;81.40
74368;DHT22;64991;41.090;-8.118;2024-01-30T18:52:11;16.90;81.50
74368;DHT22;64991;41.090;-8.118;2024-01-30T18:57:15;16.90;81.50
74368;DHT22;64991;41.090;-8.118;2024-01-30T19:02:19;17.00;81.70
74368;DHT22;64991;41.090;-8.118;2024-01-30T19:07:24;17.00;81.70
74368;DHT22;64991;41.090;-8.118;2024-01-30T19:12:27;17.00;81.70
74368;DHT22;64991;41.090;-8.118;2024-01-30T19:17:31;17.00;81.60
74368;DHT22;64991;41.090;-8.118;2024-01-30T19:22:36;16.90;81.60
74368;DHT22;64991;41.090;-8.118;2024-01-30T19:27:40;16.90;81.50
74368;DHT22;64991;41.090;-8.118;2024-01-30T19:32:44;16.90;81.80
74368;DHT22;64991;41.090;-8.118;2024-01-30T19:37:49;16.90;81.40
74368;DHT22;64991;41.090;-8.118;2024-01-30T19:42:53;17.00;81.50
74368;DHT22;64991;41.090;-8.118;2024-01-30T19:47:57;16.90;81.50
74368;DHT22;64991;41.090;-8.118;2024-01-30T19:53:02;17.00;81.40
74368;DHT22;64991;41.090;-8.118;2024-01-30T19:58:06;16.90;81.60
74368;DHT22;64991;41.090;-8.118;2024-01-30T20:03:09;17.00;81.40
74368;DHT22;64991;41.090;-8.118;2024-01-30T20:08:14;16.90;81.50
74368;DHT22;64991;41.090;-8.118;2024-01-30T20:13:18;16.90;81.80
74368;DHT22;64991;41.090;-8.118;2024-01-30T20:18:22;17.00;81.50
74368;DHT22;64991;41.090;-8.118;2024-01-30T20:23:27;16.90;81.40
74368;DHT22;64991;41.090;-8.118;2024-01-30T20:28:31;16.90;81.80
74368;DHT22;64991;41.090;-8.118;2024-01-30T20:33:34;16.90;81.70
74368;DHT22;64991;41.090;-8.118;2024-01-30T20:38:40;17.00;81.50
74368;DHT22;64991;41.090;-8.118;2024-01-30T20:43:44;16.90;81.50
74368;DHT22;64991;41.090;-8.118;2024-01-30T20:48:47;17.00;81.60
74368;DHT22;64991;41.090;-8.118;2024-01-30T20:53:53;17.00;81.30
74368;DHT22;64991;41.090;-8.118;2024-01-30T20:58:58;16.90;81.70
74368;DHT22;64991;41.090;-8.118;2024-01-30T21:04:01;16.90;81.50
74368;DHT22;64991;41.090;-8.118;2024-01-30T21:09:06;16.90;81.50
74368;DHT22;64991;41.090;-8.118;2024-01-30T21:14:10;16.90;81.50
74368;DHT22;64991;41.090;-8.118;2024-01-30T21:19:15;16.90;81.60
74368;DHT22;64991;41.090;-8.118;2024-01-30T21:24:21;16.90;81.70
74368;DHT22;64991;41.090;-8.118;2024-01-30T21:29:25;16.90;81.40
74368;DHT22;64991;41.090;-8.118;2024-01-30T21:34:28;16.90;81.60
74368;DHT22;64991;41.090;-8.118;2024-01-30T21:39:33;16.90;81.60
74368;DHT22;64991;41.090;-8.118;2024-01-30T21:44:39;16.90;81.70
74368;DHT22;64991;41.090;-8.118;2024-01-30T21:49:43;16.90;81.50
74368;DHT22;64991;41.090;-8.118;2024-01-30T21:54:49;16.90;81.50
74368;DHT22;64991;41.090;-8.118;2024-01-30T21:59:53;16.90;81.20
74368;DHT22;64991;41.090;-8.118;2024-01-30T22:04:56;16.90;81.50
74368;DHT22;64991;41.090;-8.118;2024-01-30T22:10:01;16.90;81.70
74368;DHT22;64991;41.090;-8.118;2024-01-30T22:15:06;16.90;81.50
74368;DHT22;64991;41.090;-8.118;2024-01-30T22:20:10;16.90;81.50
74368;DHT22;64991;41.090;-8.118;2024-01-30T22:25:16;16.90;81.60
74368;DHT22;64991;41.090;-8.118;2024-01-30T22:30:19;16.90;81.50
74368;DHT22;64991;41.090;-8.118;2024-01-30T22:35:23;16.90;81.40
74368;DHT22;64991;41.090;-8.118;2024-01-30T22:40:28;16.80;81.60
74368;DHT22;64991;41.090;-8.118;2024-01-30T22:45:32;16.90;81.40
74368;DHT22;64991;41.090;-8.118;2024-01-30T22:50:35;16.90;81.60
74368;DHT22;64991;41.090;-8.118;2024-01-30T22:55:41;16.90;81.50
74368;DHT22;64991;41.090;-8.118;2024-01-30T23:00:44;16.90;81.30
74368;DHT22;64991;41.090;-8.118;2024-01-30T23:05:48;16.90;81.40
74368;DHT22;64991;41.090;-8.118;2024-01-30T23:10:53;16.90;81.50
74368;DHT22;64991;41.090;-8.118;2024-01-30T23:15:57;16.90;81.40
74368;DHT22;64991;41.090;-8.118;2024-01-30T23:21:00;16.90;81.40
74368;DHT22;64991;41.090;-8.118;2024-01-30T23:26:05;16.90;81.40
74368;DHT22;64991;41.090;-8.118;2024-01-30T23:31:09;16.90;81.40
74368;DHT22;64991;41.090;-8.118;2024-01-30T23:36:12;16.90;81.50
74368;DHT22;64991;41.090;-8.118;2024-01-30T23:41:17;16.90;81.20
74368;DHT22;64991;41.090;-8.118;2024-01-30T23:46:22;16.90;81.30
74368;DHT22;64991;41.090;-8.118;2024-01-30T23:51:25;16.90;81.30
74368;DHT22;64991;41.090;-8.118;2024-01-30T23:56:30;16.90;81.30
